Archival Weather

Ronald Reagan Washington Ntl

Arlington, Virginia (KDCA)

Report from: Sunday, March 19, 2023 7:52 PM EDT
Current time: Wednesday, May 29, 2024 4:59 AM EDT

Current weather – Weather history – Daily summaries
Weather forecast

Temperature3.9°C (39.0°F)
Wind chill-0.3°C (31.4°F)
Dew point-12.8°C (9.0°F)
Winds 11 kts (5.7 m/s, 12.7 mph) West (280°)
Visibility10 mi. (16.1 km)
Clouds Sky clear
Altimeter30.23 in.Hg (1024 mB)
Relative humidity28 %
Density altitude-1,646 ft. (-502 m)
Sea-level pressure102.3 kPa (1023 mB, 30.22 in.Hg)
Max temp last 6 hours6.1°C (43.0°F)
Min temp last 6 hours3.9°C (39.0°F)
Remarks System requires maintenance
Automated weather observing station with precipitation discriminator
Pressure rising more quickly
Flight conditions Visual Meteorological Conditions
Raw dataKDCA 192352Z 28011KT 10SM CLR 04/M13 A3023 RMK AO2 SLP234 T00391128 10061 20039 53017 $
An error has occurred. This application may no longer respond until reloaded. Reload 🗙